sensor_id;sensor_type;location;lat;lon;timestamp;temperature;humidity
3134;DHT22;1577;49.912;10.924;2023-04-01T00:02:19;9.80;99.90
3134;DHT22;1577;49.912;10.924;2023-04-01T00:04:45;9.80;99.90
3134;DHT22;1577;49.912;10.924;2023-04-01T00:07:11;9.80;99.90
3134;DHT22;1577;49.912;10.924;2023-04-01T00:09:37;9.80;99.90
3134;DHT22;1577;49.912;10.924;2023-04-01T00:12:03;9.80;99.90
3134;DHT22;1577;49.912;10.924;2023-04-01T00:14:28;9.80;99.90
3134;DHT22;1577;49.912;10.924;2023-04-01T00:16:55;9.80;99.90
3134;DHT22;1577;49.912;10.924;2023-04-01T00:19:21;9.80;99.90
3134;DHT22;1577;49.912;10.924;2023-04-01T00:21:46;9.90;99.90
3134;DHT22;1577;49.912;10.924;2023-04-01T00:24:13;9.90;99.90
3134;DHT22;1577;49.912;10.924;2023-04-01T00:26:38;9.90;99.90
3134;DHT22;1577;49.912;10.924;2023-04-01T00:29:04;9.90;99.90
3134;DHT22;1577;49.912;10.924;2023-04-01T00:31:30;9.90;99.90
3134;DHT22;1577;49.912;10.924;2023-04-01T00:33:56;9.80;99.90
3134;DHT22;1577;49.912;10.924;2023-04-01T00:36:22;9.80;99.90
3134;DHT22;1577;49.912;10.924;2023-04-01T00:38:49;9.90;99.90
3134;DHT22;1577;49.912;10.924;2023-04-01T00:41:15;9.90;99.90
3134;DHT22;1577;49.912;10.924;2023-04-01T00:43:45;9.90;99.90
3134;DHT22;1577;49.912;10.924;2023-04-01T00:46:11;9.90;99.90
3134;DHT22;1577;49.912;10.924;2023-04-01T00:48:41;9.90;99.90
3134;DHT22;1577;49.912;10.924;2023-04-01T00:51:20;9.90;99.90
3134;DHT22;1577;49.912;10.924;2023-04-01T00:53:49;9.90;99.90
3134;DHT22;1577;49.912;10.924;2023-04-01T00:56:36;10.00;99.90
3134;DHT22;1577;49.912;10.924;2023-04-01T00:59:16;10.00;99.90
3134;DHT22;1577;49.912;10.924;2023-04-01T01:01:43;10.00;99.90
3134;DHT22;1577;49.912;10.924;2023-04-01T01:04:27;10.00;99.90
3134;DHT22;1577;49.912;10.924;2023-04-01T01:09:42;10.00;99.90
3134;DHT22;1577;49.912;10.924;2023-04-01T01:12:52;10.00;99.90
3134;DHT22;1577;49.912;10.924;2023-04-01T01:15:20;10.00;99.90
3134;DHT22;1577;49.912;10.924;2023-04-01T01:26:13;10.10;99.90
3134;DHT22;1577;49.912;10.924;2023-04-01T01:31:44;10.10;99.90
3134;DHT22;1577;49.912;10.924;2023-04-01T01:37:29;10.10;99.90
3134;DHT22;1577;49.912;10.924;2023-04-01T01:39:59;10.10;99.90
3134;DHT22;1577;49.912;10.924;2023-04-01T01:42:27;10.00;99.90
3134;DHT22;1577;49.912;10.924;2023-04-01T01:44:55;10.00;99.90
3134;DHT22;1577;49.912;10.924;2023-04-01T01:47:23;10.00;99.90
3134;DHT22;1577;49.912;10.924;2023-04-01T01:49:51;10.00;99.90
3134;DHT22;1577;49.912;10.924;2023-04-01T01:52:17;9.90;99.90
3134;DHT22;1577;49.912;10.924;2023-04-01T01:54:53;9.90;99.90
3134;DHT22;1577;49.912;10.924;2023-04-01T01:57:24;10.00;99.90
3134;DHT22;1577;49.912;10.924;2023-04-01T01:59:54;10.00;99.90
3134;DHT22;1577;49.912;10.924;2023-04-01T02:02:22;10.00;99.90
3134;DHT22;1577;49.912;10.924;2023-04-01T02:04:49;10.00;99.90
3134;DHT22;1577;49.912;10.924;2023-04-01T02:07:23;10.00;99.90
3134;DHT22;1577;49.912;10.924;2023-04-01T02:09:51;10.00;99.90
3134;DHT22;1577;49.912;10.924;2023-04-01T02:12:19;10.10;99.90
3134;DHT22;1577;49.912;10.924;2023-04-01T02:15:05;10.00;99.90
3134;DHT22;1577;49.912;10.924;2023-04-01T02:17:33;10.00;99.90
3134;DHT22;1577;49.912;10.924;2023-04-01T02:22:29;10.00;99.90
3134;DHT22;1577;49.912;10.924;2023-04-01T02:25:06;10.00;99.90
3134;DHT22;1577;49.912;10.924;2023-04-01T02:27:33;10.00;99.90
3134;DHT22;1577;49.912;10.924;2023-04-01T02:29:59;10.00;99.90
3134;DHT22;1577;49.912;10.924;2023-04-01T02:32:25;10.00;99.90
3134;DHT22;1577;49.912;10.924;2023-04-01T02:34:52;10.00;99.90
3134;DHT22;1577;49.912;10.924;2023-04-01T02:37:18;10.00;99.90
3134;DHT22;1577;49.912;10.924;2023-04-01T02:39:43;10.00;99.90
3134;DHT22;1577;49.912;10.924;2023-04-01T02:42:09;9.90;99.90
3134;DHT22;1577;49.912;10.924;2023-04-01T02:44:36;9.90;99.90
3134;DHT22;1577;49.912;10.924;2023-04-01T02:47:02;10.00;99.90
3134;DHT22;1577;49.912;10.924;2023-04-01T02:49:28;10.00;99.90
3134;DHT22;1577;49.912;10.924;2023-04-01T02:51:53;9.90;99.90
3134;DHT22;1577;49.912;10.924;2023-04-01T02:54:19;9.90;99.90
3134;DHT22;1577;49.912;10.924;2023-04-01T02:56:45;9.90;99.90
3134;DHT22;1577;49.912;10.924;2023-04-01T02:59:11;9.90;99.90
3134;DHT22;1577;49.912;10.924;2023-04-01T03:01:37;9.90;99.90
3134;DHT22;1577;49.912;10.924;2023-04-01T03:04:03;9.90;99.90
3134;DHT22;1577;49.912;10.924;2023-04-01T03:06:28;9.90;99.90
3134;DHT22;1577;49.912;10.924;2023-04-01T03:08:54;9.90;99.90
3134;DHT22;1577;49.912;10.924;2023-04-01T03:11:20;9.90;99.90
3134;DHT22;1577;49.912;10.924;2023-04-01T03:13:46;9.90;99.90
3134;DHT22;1577;49.912;10.924;2023-04-01T03:16:12;9.90;99.90
3134;DHT22;1577;49.912;10.924;2023-04-01T03:18:38;9.90;99.90
3134;DHT22;1577;49.912;10.924;2023-04-01T03:21:15;9.90;99.90
3134;DHT22;1577;49.912;10.924;2023-04-01T03:23:40;9.90;99.90
3134;DHT22;1577;49.912;10.924;2023-04-01T03:26:06;9.80;99.90
3134;DHT22;1577;49.912;10.924;2023-04-01T03:28:32;9.80;99.90
3134;DHT22;1577;49.912;10.924;2023-04-01T03:30:57;9.80;99.90
3134;DHT22;1577;49.912;10.924;2023-04-01T03:33:23;9.90;99.90
3134;DHT22;1577;49.912;10.924;2023-04-01T03:35:48;9.80;99.90
3134;DHT22;1577;49.912;10.924;2023-04-01T03:38:17;9.90;99.90
3134;DHT22;1577;49.912;10.924;2023-04-01T03:40:44;9.80;99.90
3134;DHT22;1577;49.912;10.924;2023-04-01T03:43:09;9.80;99.90
3134;DHT22;1577;49.912;10.924;2023-04-01T03:45:36;9.90;99.90
3134;DHT22;1577;49.912;10.924;2023-04-01T03:48:01;9.90;99.90
3134;DHT22;1577;49.912;10.924;2023-04-01T03:50:27;9.90;99.90
3134;DHT22;1577;49.912;10.924;2023-04-01T03:52:52;9.90;99.90
3134;DHT22;1577;49.912;10.924;2023-04-01T03:55:18;9.90;99.90
3134;DHT22;1577;49.912;10.924;2023-04-01T03:57:44;9.80;99.90
3134;DHT22;1577;49.912;10.924;2023-04-01T04:00:10;9.80;99.90
3134;DHT22;1577;49.912;10.924;2023-04-01T04:02:36;9.90;99.90
3134;DHT22;1577;49.912;10.924;2023-04-01T04:05:01;9.90;99.90
3134;DHT22;1577;49.912;10.924;2023-04-01T04:07:27;9.90;99.90
3134;DHT22;1577;49.912;10.924;2023-04-01T04:09:53;9.90;99.90
3134;DHT22;1577;49.912;10.924;2023-04-01T04:12:18;9.90;99.90
3134;DHT22;1577;49.912;10.924;2023-04-01T04:14:44;9.90;99.90
3134;DHT22;1577;49.912;10.924;2023-04-01T04:17:10;9.90;99.90
3134;DHT22;1577;49.912;10.924;2023-04-01T04:19:41;9.90;99.90
3134;DHT22;1577;49.912;10.924;2023-04-01T04:22:07;9.90;99.90
3134;DHT22;1577;49.912;10.924;2023-04-01T04:24:37;9.90;99.90
3134;DHT22;1577;49.912;10.924;2023-04-01T04:27:03;9.90;99.90
3134;DHT22;1577;49.912;10.924;2023-04-01T04:29:29;9.80;99.90
3134;DHT22;1577;49.912;10.924;2023-04-01T04:31:55;9.80;99.90
3134;DHT22;1577;49.912;10.924;2023-04-01T04:34:20;9.90;99.90
3134;DHT22;1577;49.912;10.924;2023-04-01T04:36:47;9.90;99.90
3134;DHT22;1577;49.912;10.924;2023-04-01T04:39:13;9.90;99.90
3134;DHT22;1577;49.912;10.924;2023-04-01T04:41:39;9.80;99.90
3134;DHT22;1577;49.912;10.924;2023-04-01T04:44:05;9.80;99.90
3134;DHT22;1577;49.912;10.924;2023-04-01T04:46:31;9.90;99.90
3134;DHT22;1577;49.912;10.924;2023-04-01T04:48:56;9.80;99.90
3134;DHT22;1577;49.912;10.924;2023-04-01T04:51:22;9.90;99.90
3134;DHT22;1577;49.912;10.924;2023-04-01T04:53:49;9.90;99.90
3134;DHT22;1577;49.912;10.924;2023-04-01T04:56:19;9.80;99.90
3134;DHT22;1577;49.912;10.924;2023-04-01T04:58:45;9.80;99.90
3134;DHT22;1577;49.912;10.924;2023-04-01T05:01:13;9.80;99.90
3134;DHT22;1577;49.912;10.924;2023-04-01T05:03:39;9.80;99.90
3134;DHT22;1577;49.912;10.924;2023-04-01T05:06:06;9.80;99.90
3134;DHT22;1577;49.912;10.924;2023-04-01T05:08:32;9.80;99.90
3134;DHT22;1577;49.912;10.924;2023-04-01T05:10:58;9.80;99.90
3134;DHT22;1577;49.912;10.924;2023-04-01T05:13:24;9.80;99.90
3134;DHT22;1577;49.912;10.924;2023-04-01T05:15:50;9.80;99.90
3134;DHT22;1577;49.912;10.924;2023-04-01T05:18:16;9.80;99.90
3134;DHT22;1577;49.912;10.924;2023-04-01T05:20:49;9.90;99.90
3134;DHT22;1577;49.912;10.924;2023-04-01T05:23:15;9.90;99.90
3134;DHT22;1577;49.912;10.924;2023-04-01T05:25:41;9.90;99.90
3134;DHT22;1577;49.912;10.924;2023-04-01T05:28:07;9.90;99.90
3134;DHT22;1577;49.912;10.924;2023-04-01T05:30:32;9.90;99.90
3134;DHT22;1577;49.912;10.924;2023-04-01T05:32:58;9.90;99.90
3134;DHT22;1577;49.912;10.924;2023-04-01T05:35:24;9.90;99.90
3134;DHT22;1577;49.912;10.924;2023-04-01T05:37:49;9.90;99.90
3134;DHT22;1577;49.912;10.924;2023-04-01T05:40:15;10.00;99.90
3134;DHT22;1577;49.912;10.924;2023-04-01T05:42:41;10.00;99.90
3134;DHT22;1577;49.912;10.924;2023-04-01T05:45:07;10.00;99.90
3134;DHT22;1577;49.912;10.924;2023-04-01T05:47:32;10.00;99.90
3134;DHT22;1577;49.912;10.924;2023-04-01T05:49:58;9.90;99.90
3134;DHT22;1577;49.912;10.924;2023-04-01T05:52:24;10.00;99.90
3134;DHT22;1577;49.912;10.924;2023-04-01T05:54:49;10.00;99.90
3134;DHT22;1577;49.912;10.924;2023-04-01T05:57:15;10.00;99.90
3134;DHT22;1577;49.912;10.924;2023-04-01T05:59:41;10.00;99.90
3134;DHT22;1577;49.912;10.924;2023-04-01T06:02:08;10.10;99.90
3134;DHT22;1577;49.912;10.924;2023-04-01T06:04:37;10.10;99.90
3134;DHT22;1577;49.912;10.924;2023-04-01T06:07:13;10.10;99.90
3134;DHT22;1577;49.912;10.924;2023-04-01T06:09:40;10.10;99.90
3134;DHT22;1577;49.912;10.924;2023-04-01T06:18:01;10.10;99.90
3134;DHT22;1577;49.912;10.924;2023-04-01T06:24:07;10.10;99.90
3134;DHT22;1577;49.912;10.924;2023-04-01T06:32:14;10.20;99.90
3134;DHT22;1577;49.912;10.924;2023-04-01T06:41:15;10.20;99.90
3134;DHT22;1577;49.912;10.924;2023-04-01T06:55:34;10.30;99.90
3134;DHT22;1577;49.912;10.924;2023-04-01T06:58:05;10.30;99.90
3134;DHT22;1577;49.912;10.924;2023-04-01T07:00:43;10.30;99.90
3134;DHT22;1577;49.912;10.924;2023-04-01T07:06:05;10.30;99.90
3134;DHT22;1577;49.912;10.924;2023-04-01T07:08:35;10.30;99.90
3134;DHT22;1577;49.912;10.924;2023-04-01T07:11:04;10.40;99.90
3134;DHT22;1577;49.912;10.924;2023-04-01T07:13:52;10.40;99.90
3134;DHT22;1577;49.912;10.924;2023-04-01T07:16:34;10.40;99.90
3134;DHT22;1577;49.912;10.924;2023-04-01T07:19:08;10.40;99.90
3134;DHT22;1577;49.912;10.924;2023-04-01T07:21:53;10.40;99.90
3134;DHT22;1577;49.912;10.924;2023-04-01T07:24:34;10.40;99.90
3134;DHT22;1577;49.912;10.924;2023-04-01T07:27:00;10.40;99.90
3134;DHT22;1577;49.912;10.924;2023-04-01T07:29:26;10.40;99.90
3134;DHT22;1577;49.912;10.924;2023-04-01T07:31:56;10.40;99.90
3134;DHT22;1577;49.912;10.924;2023-04-01T07:34:36;10.40;99.90
3134;DHT22;1577;49.912;10.924;2023-04-01T07:37:28;10.40;99.90
3134;DHT22;1577;49.912;10.924;2023-04-01T07:45:31;10.40;99.90
3134;DHT22;1577;49.912;10.924;2023-04-01T07:48:23;10.40;99.90
3134;DHT22;1577;49.912;10.924;2023-04-01T07:53:36;10.40;99.90
3134;DHT22;1577;49.912;10.924;2023-04-01T07:56:15;10.40;99.90
3134;DHT22;1577;49.912;10.924;2023-04-01T08:01:42;10.40;99.90
3134;DHT22;1577;49.912;10.924;2023-04-01T08:07:22;10.40;99.90
3134;DHT22;1577;49.912;10.924;2023-04-01T08:09:59;10.40;99.90
3134;DHT22;1577;49.912;10.924;2023-04-01T08:15:26;10.50;99.90
3134;DHT22;1577;49.912;10.924;2023-04-01T08:20:34;10.60;99.90
3134;DHT22;1577;49.912;10.924;2023-04-01T08:23:23;10.60;99.90
3134;DHT22;1577;49.912;10.924;2023-04-01T08:28:44;10.60;99.90
3134;DHT22;1577;49.912;10.924;2023-04-01T08:31:23;10.60;99.90
3134;DHT22;1577;49.912;10.924;2023-04-01T08:33:53;10.60;99.90
3134;DHT22;1577;49.912;10.924;2023-04-01T08:36:24;10.70;99.90
3134;DHT22;1577;49.912;10.924;2023-04-01T08:38:57;10.80;99.90
3134;DHT22;1577;49.912;10.924;2023-04-01T08:47:36;11.10;99.90
3134;DHT22;1577;49.912;10.924;2023-04-01T08:56:18;11.10;99.90
3134;DHT22;1577;49.912;10.924;2023-04-01T08:59:14;11.10;99.90
3134;DHT22;1577;49.912;10.924;2023-04-01T09:01:46;11.10;99.90
3134;DHT22;1577;49.912;10.924;2023-04-01T09:06:52;11.10;99.90
3134;DHT22;1577;49.912;10.924;2023-04-01T09:18:00;11.20;99.90
3134;DHT22;1577;49.912;10.924;2023-04-01T09:23:40;11.30;99.90
3134;DHT22;1577;49.912;10.924;2023-04-01T09:26:28;11.30;99.90
3134;DHT22;1577;49.912;10.924;2023-04-01T09:37:08;11.50;99.90
3134;DHT22;1577;49.912;10.924;2023-04-01T09:42:42;11.60;99.90
3134;DHT22;1577;49.912;10.924;2023-04-01T09:48:11;11.60;99.90
3134;DHT22;1577;49.912;10.924;2023-04-01T09:50:52;11.60;99.90
3134;DHT22;1577;49.912;10.924;2023-04-01T10:01:42;11.40;99.90
3134;DHT22;1577;49.912;10.924;2023-04-01T10:20:41;10.90;99.90
3134;DHT22;1577;49.912;10.924;2023-04-01T10:26:07;10.70;99.90
3134;DHT22;1577;49.912;10.924;2023-04-01T10:49:37;11.10;99.90
3134;DHT22;1577;49.912;10.924;2023-04-01T11:04:05;11.10;99.90
3134;DHT22;1577;49.912;10.924;2023-04-01T11:12:38;11.50;99.90
3134;DHT22;1577;49.912;10.924;2023-04-01T11:27:07;11.60;99.90
3134;DHT22;1577;49.912;10.924;2023-04-01T11:37:55;11.70;99.90
3134;DHT22;1577;49.912;10.924;2023-04-01T11:40:38;11.60;99.90
3134;DHT22;1577;49.912;10.924;2023-04-01T11:48:48;11.50;99.90
3134;DHT22;1577;49.912;10.924;2023-04-01T11:51:52;11.40;99.90
3134;DHT22;1577;49.912;10.924;2023-04-01T11:55:05;11.40;99.90
3134;DHT22;1577;49.912;10.924;2023-04-01T12:01:05;11.20;99.90
3134;DHT22;1577;49.912;10.924;2023-04-01T12:11:11;11.10;99.90
3134;DHT22;1577;49.912;10.924;2023-04-01T12:17:06;11.10;99.90
3134;DHT22;1577;49.912;10.924;2023-04-01T12:20:10;11.10;99.90
3134;DHT22;1577;49.912;10.924;2023-04-01T12:55:46;11.30;99.90
3134;DHT22;1577;49.912;10.924;2023-04-01T13:04:27;11.20;99.90
3134;DHT22;1577;49.912;10.924;2023-04-01T13:07:31;11.20;99.90
3134;DHT22;1577;49.912;10.924;2023-04-01T13:15:47;11.50;99.90
3134;DHT22;1577;49.912;10.924;2023-04-01T13:24:30;11.50;99.90
3134;DHT22;1577;49.912;10.924;2023-04-01T13:26:58;11.50;99.90
3134;DHT22;1577;49.912;10.924;2023-04-01T13:29:36;11.50;99.90
3134;DHT22;1577;49.912;10.924;2023-04-01T13:32:06;11.50;99.90
3134;DHT22;1577;49.912;10.924;2023-04-01T13:40:38;11.60;99.90
3134;DHT22;1577;49.912;10.924;2023-04-01T13:51:29;11.60;99.90
3134;DHT22;1577;49.912;10.924;2023-04-01T13:57:21;11.60;99.90
3134;DHT22;1577;49.912;10.924;2023-04-01T14:05:19;11.50;99.90
3134;DHT22;1577;49.912;10.924;2023-04-01T14:08:25;11.50;99.90
3134;DHT22;1577;49.912;10.924;2023-04-01T14:11:13;11.50;99.90
3134;DHT22;1577;49.912;10.924;2023-04-01T14:24:51;11.50;99.90
3134;DHT22;1577;49.912;10.924;2023-04-01T14:38:47;11.60;99.90
3134;DHT22;1577;49.912;10.924;2023-04-01T14:49:41;11.60;99.90
3134;DHT22;1577;49.912;10.924;2023-04-01T14:54:44;11.70;99.90
3134;DHT22;1577;49.912;10.924;2023-04-01T14:57:30;11.80;99.90
3134;DHT22;1577;49.912;10.924;2023-04-01T15:08:30;11.90;99.90
3134;DHT22;1577;49.912;10.924;2023-04-01T15:11:22;12.00;99.90
3134;DHT22;1577;49.912;10.924;2023-04-01T15:13:58;12.00;99.90
3134;DHT22;1577;49.912;10.924;2023-04-01T15:16:41;12.00;99.90
3134;DHT22;1577;49.912;10.924;2023-04-01T15:24:46;11.80;99.90
3134;DHT22;1577;49.912;10.924;2023-04-01T15:35:26;11.70;99.90
3134;DHT22;1577;49.912;10.924;2023-04-01T15:38:28;11.70;99.90
3134;DHT22;1577;49.912;10.924;2023-04-01T15:54:32;11.60;99.90
3134;DHT22;1577;49.912;10.924;2023-04-01T16:00:47;11.60;99.90
3134;DHT22;1577;49.912;10.924;2023-04-01T16:11:55;11.40;99.90
3134;DHT22;1577;49.912;10.924;2023-04-01T16:15:03;11.50;99.90
3134;DHT22;1577;49.912;10.924;2023-04-01T16:18:42;11.50;99.90
3134;DHT22;1577;49.912;10.924;2023-04-01T16:23:40;11.30;99.90
3134;DHT22;1577;49.912;10.924;2023-04-01T16:26:37;11.30;99.90
3134;DHT22;1577;49.912;10.924;2023-04-01T16:34:43;11.30;99.90
3134;DHT22;1577;49.912;10.924;2023-04-01T16:40:01;11.20;99.90
3134;DHT22;1577;49.912;10.924;2023-04-01T16:42:40;11.20;99.90
3134;DHT22;1577;49.912;10.924;2023-04-01T16:45:40;11.20;99.90
3134;DHT22;1577;49.912;10.924;2023-04-01T16:53:47;11.00;99.90
3134;DHT22;1577;49.912;10.924;2023-04-01T16:56:23;11.00;99.90
3134;DHT22;1577;49.912;10.924;2023-04-01T17:06:55;10.80;99.90
3134;DHT22;1577;49.912;10.924;2023-04-01T17:20:43;10.50;99.90
3134;DHT22;1577;49.912;10.924;2023-04-01T17:34:01;10.40;99.90
3134;DHT22;1577;49.912;10.924;2023-04-01T17:42:11;10.40;99.90
3134;DHT22;1577;49.912;10.924;2023-04-01T17:44:55;10.40;99.90
3134;DHT22;1577;49.912;10.924;2023-04-01T17:47:52;10.40;99.90
3134;DHT22;1577;49.912;10.924;2023-04-01T17:53:11;10.40;99.90
3134;DHT22;1577;49.912;10.924;2023-04-01T17:56:17;10.30;99.90
3134;DHT22;1577;49.912;10.924;2023-04-01T18:04:36;10.10;99.90
3134;DHT22;1577;49.912;10.924;2023-04-01T18:12:32;10.10;99.90
3134;DHT22;1577;49.912;10.924;2023-04-01T18:21:03;10.10;99.90
3134;DHT22;1577;49.912;10.924;2023-04-01T18:23:55;10.20;99.90
3134;DHT22;1577;49.912;10.924;2023-04-01T18:26:35;10.20;99.90
3134;DHT22;1577;49.912;10.924;2023-04-01T18:29:20;10.20;99.90
3134;DHT22;1577;49.912;10.924;2023-04-01T18:32:07;10.20;99.90
3134;DHT22;1577;49.912;10.924;2023-04-01T18:40:45;10.20;99.90
3134;DHT22;1577;49.912;10.924;2023-04-01T18:49:25;10.20;99.90
3134;DHT22;1577;49.912;10.924;2023-04-01T18:52:07;10.20;99.90
3134;DHT22;1577;49.912;10.924;2023-04-01T18:57:18;10.20;99.90
3134;DHT22;1577;49.912;10.924;2023-04-01T19:02:38;10.10;99.90
3134;DHT22;1577;49.912;10.924;2023-04-01T19:05:09;10.10;99.90
3134;DHT22;1577;49.912;10.924;2023-04-01T19:07:49;10.10;99.90
3134;DHT22;1577;49.912;10.924;2023-04-01T19:10:17;10.20;99.90
3134;DHT22;1577;49.912;10.924;2023-04-01T19:25:39;10.00;99.90
3134;DHT22;1577;49.912;10.924;2023-04-01T19:30:59;10.00;99.90
3134;DHT22;1577;49.912;10.924;2023-04-01T19:36:14;10.00;99.90
3134;DHT22;1577;49.912;10.924;2023-04-01T19:38:58;9.90;99.90
3134;DHT22;1577;49.912;10.924;2023-04-01T19:44:16;9.90;99.90
3134;DHT22;1577;49.912;10.924;2023-04-01T19:52:30;9.90;99.90
3134;DHT22;1577;49.912;10.924;2023-04-01T19:55:40;9.80;99.90
3134;DHT22;1577;49.912;10.924;2023-04-01T19:58:18;9.80;99.90
3134;DHT22;1577;49.912;10.924;2023-04-01T20:00:52;9.80;99.90
3134;DHT22;1577;49.912;10.924;2023-04-01T20:06:06;9.80;99.90
3134;DHT22;1577;49.912;10.924;2023-04-01T20:08:45;9.80;99.90
3134;DHT22;1577;49.912;10.924;2023-04-01T20:11:28;9.90;99.90
3134;DHT22;1577;49.912;10.924;2023-04-01T20:14:15;9.90;99.90
3134;DHT22;1577;49.912;10.924;2023-04-01T20:19:12;9.90;99.90
3134;DHT22;1577;49.912;10.924;2023-04-01T20:21:46;9.80;99.90
3134;DHT22;1577;49.912;10.924;2023-04-01T20:24:41;9.80;99.90
3134;DHT22;1577;49.912;10.924;2023-04-01T20:29:47;9.90;99.90
3134;DHT22;1577;49.912;10.924;2023-04-01T20:32:34;9.90;99.90
3134;DHT22;1577;49.912;10.924;2023-04-01T20:35:25;9.90;99.90
3134;DHT22;1577;49.912;10.924;2023-04-01T20:40:47;9.90;99.90
3134;DHT22;1577;49.912;10.924;2023-04-01T20:43:23;9.80;99.90
3134;DHT22;1577;49.912;10.924;2023-04-01T20:46:33;9.80;99.90
3134;DHT22;1577;49.912;10.924;2023-04-01T20:51:54;9.80;99.90
3134;DHT22;1577;49.912;10.924;2023-04-01T20:54:42;9.80;99.90
3134;DHT22;1577;49.912;10.924;2023-04-01T20:57:34;9.80;99.90
3134;DHT22;1577;49.912;10.924;2023-04-01T21:03:23;9.80;99.90
3134;DHT22;1577;49.912;10.924;2023-04-01T21:15:03;9.80;99.90
3134;DHT22;1577;49.912;10.924;2023-04-01T21:20:22;9.80;99.90
3134;DHT22;1577;49.912;10.924;2023-04-01T21:22:59;9.80;99.90
3134;DHT22;1577;49.912;10.924;2023-04-01T21:34:02;9.80;99.90
3134;DHT22;1577;49.912;10.924;2023-04-01T21:40:11;9.80;99.90
3134;DHT22;1577;49.912;10.924;2023-04-01T21:47:42;9.80;99.90
3134;DHT22;1577;49.912;10.924;2023-04-01T22:09:34;9.70;99.90
3134;DHT22;1577;49.912;10.924;2023-04-01T22:12:17;9.70;99.90
3134;DHT22;1577;49.912;10.924;2023-04-01T22:17:39;9.70;99.90
3134;DHT22;1577;49.912;10.924;2023-04-01T22:22:52;9.60;99.90
3134;DHT22;1577;49.912;10.924;2023-04-01T22:25:45;9.60;99.90
3134;DHT22;1577;49.912;10.924;2023-04-01T22:28:21;9.60;99.90
3134;DHT22;1577;49.912;10.924;2023-04-01T22:30:59;9.70;99.90
3134;DHT22;1577;49.912;10.924;2023-04-01T22:33:45;9.60;99.90
3134;DHT22;1577;49.912;10.924;2023-04-01T22:36:32;9.50;99.90
3134;DHT22;1577;49.912;10.924;2023-04-01T22:42:00;9.60;99.90
3134;DHT22;1577;49.912;10.924;2023-04-01T22:50:02;9.60;99.90
3134;DHT22;1577;49.912;10.924;2023-04-01T22:52:40;9.50;99.90
3134;DHT22;1577;49.912;10.924;2023-04-01T22:55:30;9.50;99.90
3134;DHT22;1577;49.912;10.924;2023-04-01T22:58:14;9.60;99.90
3134;DHT22;1577;49.912;10.924;2023-04-01T23:00:52;9.50;99.90
3134;DHT22;1577;49.912;10.924;2023-04-01T23:03:31;9.40;99.90
3134;DHT22;1577;49.912;10.924;2023-04-01T23:05:59;9.30;99.90
3134;DHT22;1577;49.912;10.924;2023-04-01T23:10:54;9.10;99.90
3134;DHT22;1577;49.912;10.924;2023-04-01T23:13:44;9.10;99.90
3134;DHT22;1577;49.912;10.924;2023-04-01T23:16:13;9.10;99.90
3134;DHT22;1577;49.912;10.924;2023-04-01T23:18:52;9.00;99.90
3134;DHT22;1577;49.912;10.924;2023-04-01T23:24:11;9.00;99.90
3134;DHT22;1577;49.912;10.924;2023-04-01T23:26:59;9.00;99.90
3134;DHT22;1577;49.912;10.924;2023-04-01T23:29:26;9.00;99.90
3134;DHT22;1577;49.912;10.924;2023-04-01T23:31:58;9.00;99.90
3134;DHT22;1577;49.912;10.924;2023-04-01T23:34:27;9.00;99.90
3134;DHT22;1577;49.912;10.924;2023-04-01T23:36:56;9.10;99.90
3134;DHT22;1577;49.912;10.924;2023-04-01T23:39:35;9.20;99.90
3134;DHT22;1577;49.912;10.924;2023-04-01T23:44:45;9.10;99.90
3134;DHT22;1577;49.912;10.924;2023-04-01T23:47:33;9.10;99.90
3134;DHT22;1577;49.912;10.924;2023-04-01T23:50:01;9.10;99.90
3134;DHT22;1577;49.912;10.924;2023-04-01T23:52:31;9.10;99.90
3134;DHT22;1577;49.912;10.924;2023-04-01T23:55:25;9.20;99.90
3134;DHT22;1577;49.912;10.924;2023-04-01T23:58:34;9.20;99.90
